Aviation Digital Data Service (ADDS)

Output produced by METARs form (2018 UTC 08 August 2020)
found at http://www.aviationweather.gov/metar/data/
 
LFRN 082000Z AUTO 34009KT CAVOK 22/17 Q1018 NOSIG
TAF LFRN 081700Z 0818/0918 33010KT CAVOK 
     BECMG 0821/0823 VRB03KT 
     PROB40 
     TEMPO 0905/0908 BKN005 
     BECMG 0915/0917 36010KT 
     TEMPO 0915/0918 BKN100CB 
     PROB30 
     TEMPO 0915/0918 5000 TSRA